createdAt,value
2023-03-15T00:01:16.555Z,14.48
2023-03-15T00:03:44.499Z,15.45
2023-03-15T00:06:12.916Z,15.20
2023-03-15T00:08:40.343Z,14.35
2023-03-15T00:11:07.410Z,13.45
2023-03-15T00:13:34.455Z,13.48
2023-03-15T00:16:03.696Z,13.75
2023-03-15T00:18:31.689Z,14.80
2023-03-15T00:20:58.922Z,13.90
2023-03-15T00:23:26.041Z,13.68
2023-03-15T00:25:53.774Z,13.75
2023-03-15T00:28:21.346Z,14.50
2023-03-15T00:30:48.429Z,13.90
2023-03-15T00:33:16.037Z,13.65
2023-03-15T00:35:45.305Z,13.75
2023-03-15T00:38:13.902Z,13.13
2023-03-15T00:40:42.282Z,13.55
2023-03-15T00:43:09.262Z,13.55
2023-03-15T00:45:36.975Z,12.93
2023-03-15T00:48:04.169Z,13.85
2023-03-15T00:50:31.049Z,13.75
2023-03-15T00:52:57.965Z,14.93
2023-03-15T00:55:25.008Z,14.07
2023-03-15T00:57:51.905Z,13.63
2023-03-15T01:00:23.392Z,13.75
2023-03-15T01:02:54.284Z,12.50
2023-03-15T01:05:22.064Z,12.55
2023-03-15T01:07:49.417Z,15.75
2023-03-15T01:10:17.474Z,14.73
2023-03-15T01:12:45.116Z,14.85
2023-03-15T01:15:14.430Z,14.98
2023-03-15T01:17:42.499Z,13.60
2023-03-15T01:20:11.860Z,13.38
2023-03-15T01:22:38.886Z,13.98
2023-03-15T01:25:09.193Z,16.00
2023-03-15T01:27:36.405Z,14.80
2023-03-15T01:30:03.683Z,13.98
2023-03-15T01:32:31.112Z,14.20
2023-03-15T01:34:58.002Z,15.30
2023-03-15T01:37:24.889Z,15.10
2023-03-15T01:39:52.170Z,14.38
2023-03-15T01:42:19.215Z,12.93
2023-03-15T01:45:00.128Z,12.60
2023-03-15T01:47:28.603Z,11.32
2023-03-15T01:50:15.852Z,12.13
2023-03-15T01:52:43.581Z,11.18
2023-03-15T01:55:19.915Z,11.30
2023-03-15T01:58:06.804Z,11.80
2023-03-15T02:00:37.085Z,10.55
2023-03-15T02:03:18.050Z,9.75
2023-03-15T02:05:54.786Z,9.70
2023-03-15T02:08:39.176Z,10.85
2023-03-15T02:11:06.730Z,10.15
2023-03-15T02:13:35.606Z,9.35
2023-03-15T02:16:07.664Z,8.55
2023-03-15T02:21:38.610Z,9.50
2023-03-15T02:24:05.403Z,9.07
2023-03-15T02:26:45.520Z,8.25
2023-03-15T02:29:12.971Z,7.85
2023-03-15T02:31:41.358Z,8.40
2023-03-15T02:34:08.708Z,8.63
2023-03-15T02:36:36.834Z,8.75
2023-03-15T02:39:20.725Z,8.55
2023-03-15T02:41:53.501Z,8.43
2023-03-15T02:44:26.942Z,8.07
2023-03-15T02:46:57.908Z,8.43
2023-03-15T02:49:30.824Z,8.27
2023-03-15T02:51:57.927Z,7.95
2023-03-15T02:54:24.980Z,8.75
2023-03-15T02:56:53.403Z,7.75
2023-03-15T02:59:20.512Z,8.00
2023-03-15T03:01:47.500Z,8.25
2023-03-15T03:04:14.517Z,8.30
2023-03-15T03:06:43.901Z,8.57
2023-03-15T03:09:13.631Z,8.02
2023-03-15T03:11:42.349Z,7.35
2023-03-15T03:14:09.353Z,7.80
2023-03-15T03:16:36.327Z,7.75
2023-03-15T03:19:04.122Z,7.40
2023-03-15T03:21:32.272Z,7.30
2023-03-15T03:23:59.438Z,7.28
2023-03-15T03:26:28.069Z,6.75
2023-03-15T03:28:56.241Z,6.65
2023-03-15T03:31:26.856Z,6.18
2023-03-15T03:33:56.878Z,6.28
2023-03-15T03:36:24.994Z,6.30
2023-03-15T03:38:52.491Z,5.68
2023-03-15T03:41:21.013Z,6.47
2023-03-15T03:43:48.238Z,6.30
2023-03-15T03:46:15.653Z,5.88
2023-03-15T03:48:47.873Z,6.18
2023-03-15T03:51:14.867Z,5.93
2023-03-15T03:53:41.715Z,5.95
2023-03-15T03:56:09.116Z,4.93
2023-03-15T03:58:36.902Z,5.30
2023-03-15T04:01:17.500Z,5.68
2023-03-15T04:03:49.818Z,5.03
2023-03-15T04:06:19.812Z,5.43
2023-03-15T04:08:47.970Z,4.75
2023-03-15T04:11:20.710Z,4.82
2023-03-15T04:13:54.459Z,4.15
2023-03-15T04:16:21.549Z,4.53
2023-03-15T04:19:00.117Z,4.20
2023-03-15T04:21:33.205Z,4.28
2023-03-15T04:24:17.543Z,4.32
2023-03-15T04:27:05.597Z,4.43
2023-03-15T04:29:53.254Z,4.75
2023-03-15T04:32:36.184Z,4.32
2023-03-15T04:35:35.176Z,3.92
2023-03-15T04:38:26.776Z,3.58
2023-03-15T04:41:13.958Z,3.33
2023-03-15T04:43:59.368Z,2.17
2023-03-15T04:46:56.257Z,1.70
2023-03-15T04:49:46.171Z,1.67
2023-03-15T04:52:33.491Z,1.70
2023-03-15T04:55:26.375Z,1.50
2023-03-15T04:58:11.712Z,1.50
2023-03-15T05:00:49.266Z,1.50
2023-03-15T05:03:34.605Z,1.90
2023-03-15T05:06:31.333Z,2.70
2023-03-15T05:09:10.072Z,3.00
2023-03-15T05:11:57.273Z,3.00
2023-03-15T05:14:33.632Z,2.97
2023-03-15T05:17:10.868Z,2.70
2023-03-15T05:19:51.827Z,2.50
2023-03-15T05:22:40.914Z,2.15
2023-03-15T05:25:27.162Z,2.30
2023-03-15T05:28:12.716Z,1.75
2023-03-15T05:31:04.746Z,1.83
2023-03-15T05:33:47.027Z,2.28
2023-03-15T05:36:33.818Z,1.70
2023-03-15T05:39:20.076Z,2.42
2023-03-15T05:42:09.894Z,2.20
2023-03-15T05:44:57.303Z,2.13
2023-03-15T05:47:44.504Z,2.22
2023-03-15T05:50:29.409Z,1.98
2023-03-15T05:53:10.519Z,1.80
2023-03-15T05:56:00.890Z,1.80
2023-03-15T05:59:02.869Z,1.60
2023-03-15T06:01:43.019Z,1.50
2023-03-15T06:04:25.611Z,1.40
2023-03-15T06:06:54.981Z,1.15
2023-03-15T06:09:22.492Z,1.80
2023-03-15T06:11:49.484Z,1.77
2023-03-15T06:14:16.995Z,1.60
2023-03-15T06:16:50.506Z,1.70
2023-03-15T06:19:18.766Z,1.65
2023-03-15T06:21:45.807Z,1.90
2023-03-15T06:24:21.530Z,1.73
2023-03-15T06:26:48.892Z,1.65
2023-03-15T06:29:17.195Z,1.52
2023-03-15T06:31:49.504Z,1.75
2023-03-15T06:34:17.330Z,2.33
2023-03-15T06:36:45.361Z,1.70
2023-03-15T06:39:13.134Z,2.10
2023-03-15T06:41:41.773Z,2.10
2023-03-15T06:44:14.062Z,1.90
2023-03-15T06:46:41.942Z,1.80
2023-03-15T06:49:08.959Z,2.30
2023-03-15T06:51:37.048Z,2.33
2023-03-15T06:54:03.916Z,2.20
2023-03-15T06:59:04.867Z,2.63
2023-03-15T07:01:31.933Z,2.30
2023-03-15T07:03:58.936Z,2.35
2023-03-15T07:06:27.614Z,2.83
2023-03-15T07:08:54.901Z,2.30
2023-03-15T07:11:22.036Z,2.20
2023-03-15T07:13:49.006Z,2.83
2023-03-15T07:16:15.893Z,2.40
2023-03-15T07:18:42.961Z,2.40
2023-03-15T07:21:09.988Z,2.30
2023-03-15T07:23:37.084Z,2.05
2023-03-15T07:26:04.081Z,2.20
2023-03-15T07:28:30.969Z,2.30
2023-03-15T07:31:01.705Z,8.55
2023-03-15T07:33:30.626Z,3.30
2023-03-15T07:35:57.659Z,2.70
2023-03-15T07:38:27.088Z,2.35
2023-03-15T07:40:54.588Z,2.25
2023-03-15T07:43:22.036Z,2.03
2023-03-15T07:45:51.132Z,2.55
2023-03-15T07:48:18.394Z,2.25
2023-03-15T07:50:45.962Z,2.15
2023-03-15T07:53:13.191Z,1.98
2023-03-15T07:55:40.105Z,1.70
2023-03-15T07:58:07.077Z,1.88
2023-03-15T08:00:33.973Z,5.82
2023-03-15T08:03:01.057Z,5.93
2023-03-15T08:05:29.231Z,4.05
2023-03-15T08:07:56.721Z,3.67
2023-03-15T08:10:24.003Z,3.65
2023-03-15T08:12:51.097Z,3.80
2023-03-15T08:15:19.459Z,2.70
2023-03-15T08:17:48.428Z,1.95
2023-03-15T08:20:17.828Z,1.93
2023-03-15T08:22:46.486Z,1.60
2023-03-15T08:25:15.477Z,1.50
2023-03-15T08:27:43.220Z,8.20
2023-03-15T08:30:12.679Z,3.15
2023-03-15T08:32:40.820Z,1.90
2023-03-15T08:35:08.627Z,2.00
2023-03-15T08:37:35.825Z,2.10
2023-03-15T08:40:08.315Z,2.05
2023-03-15T08:42:38.724Z,1.30
2023-03-15T08:45:07.103Z,1.70
2023-03-15T08:47:37.815Z,1.80
2023-03-15T08:50:07.577Z,1.27
2023-03-15T08:55:01.286Z,1.10
2023-03-15T08:57:29.258Z,1.50
2023-03-15T08:59:56.366Z,1.38
2023-03-15T09:02:23.628Z,1.52
2023-03-15T09:04:53.357Z,1.38
2023-03-15T09:09:48.901Z,1.33
2023-03-15T09:12:17.092Z,1.20
2023-03-15T09:14:44.476Z,1.13
2023-03-15T09:17:11.579Z,0.90
2023-03-15T09:19:39.162Z,1.42
2023-03-15T09:22:16.255Z,1.25
2023-03-15T09:24:52.636Z,1.10
2023-03-15T09:27:19.629Z,1.20
2023-03-15T09:29:46.607Z,1.27
2023-03-15T09:32:13.474Z,1.50
2023-03-15T09:34:42.297Z,1.23
2023-03-15T09:37:09.866Z,1.40
2023-03-15T09:39:36.835Z,1.13
2023-03-15T09:42:08.933Z,1.30
2023-03-15T09:44:45.849Z,1.10
2023-03-15T09:47:19.701Z,1.30
2023-03-15T09:50:01.238Z,1.30
2023-03-15T09:52:46.341Z,1.27
2023-03-15T09:55:21.418Z,1.42
2023-03-15T09:58:10.445Z,1.02
2023-03-15T10:01:00.917Z,1.50
2023-03-15T10:03:52.258Z,1.20
2023-03-15T10:06:24.391Z,1.13
2023-03-15T10:08:58.482Z,1.17
2023-03-15T10:11:37.491Z,1.20
2023-03-15T10:14:19.695Z,1.75
2023-03-15T10:16:48.556Z,1.33
2023-03-15T10:19:51.691Z,1.20
2023-03-15T10:22:29.760Z,1.30
2023-03-15T10:25:01.868Z,1.38
2023-03-15T10:27:43.577Z,1.50
2023-03-15T10:30:21.421Z,1.30
2023-03-15T10:32:56.149Z,1.23
2023-03-15T10:35:23.086Z,1.25
2023-03-15T10:37:49.930Z,1.60
2023-03-15T10:40:39.786Z,1.40
2023-03-15T10:43:17.437Z,1.00
2023-03-15T10:45:49.017Z,1.10
2023-03-15T10:48:16.179Z,1.13
2023-03-15T10:50:42.996Z,1.10
2023-03-15T10:53:11.728Z,1.30
2023-03-15T10:55:45.846Z,1.50
2023-03-15T10:58:40.289Z,1.38
2023-03-15T11:01:11.344Z,1.45
2023-03-15T11:03:38.517Z,1.10
2023-03-15T11:06:21.178Z,1.20
2023-03-15T11:08:48.159Z,1.10
2023-03-15T11:11:14.964Z,1.20
2023-03-15T11:13:42.898Z,1.10
2023-03-15T11:16:15.857Z,0.80
2023-03-15T11:19:01.836Z,1.00
2023-03-15T11:21:35.390Z,1.00
2023-03-15T11:24:05.694Z,1.10
2023-03-15T11:26:39.038Z,0.70
2023-03-15T11:29:16.066Z,1.00
2023-03-15T11:31:43.115Z,0.80
2023-03-15T11:34:25.422Z,0.82
2023-03-15T11:37:07.964Z,0.90
2023-03-15T11:40:08.844Z,0.70
2023-03-15T11:42:51.137Z,0.60
2023-03-15T11:45:55.949Z,1.00
2023-03-15T11:49:37.621Z,0.80
2023-03-15T11:52:05.440Z,0.80
2023-03-15T11:54:32.624Z,0.90
2023-03-15T11:57:04.693Z,0.73
2023-03-15T11:59:34.249Z,0.80
2023-03-15T12:02:21.560Z,0.73
2023-03-15T12:04:57.116Z,0.93
2023-03-15T12:07:31.083Z,1.20
2023-03-15T12:10:19.260Z,0.95
2023-03-15T12:12:48.386Z,1.10
2023-03-15T12:15:15.416Z,0.90
2023-03-15T12:17:42.620Z,0.75
2023-03-15T12:20:12.841Z,0.80
2023-03-15T12:22:50.055Z,0.77
2023-03-15T12:25:54.380Z,1.00
2023-03-15T12:28:45.375Z,1.05
2023-03-15T12:31:16.345Z,0.93
2023-03-15T12:33:48.369Z,1.10
2023-03-15T12:36:36.879Z,0.98
2023-03-15T12:39:09.886Z,1.30
2023-03-15T12:41:42.439Z,0.90
2023-03-15T12:44:33.534Z,1.10
2023-03-15T12:47:02.273Z,1.00
2023-03-15T12:49:37.089Z,0.90
2023-03-15T12:52:16.021Z,0.90
2023-03-15T12:54:52.534Z,0.90
2023-03-15T12:57:31.067Z,1.00
2023-03-15T13:00:06.302Z,0.90
2023-03-15T13:02:43.425Z,0.80
2023-03-15T13:05:22.744Z,1.05
2023-03-15T13:08:05.396Z,1.05
2023-03-15T13:10:45.421Z,1.15
2023-03-15T13:13:18.383Z,1.00
2023-03-15T13:15:53.392Z,1.02
2023-03-15T13:18:23.654Z,1.00
2023-03-15T13:21:09.171Z,0.90
2023-03-15T13:23:37.522Z,1.10
2023-03-15T13:26:23.367Z,1.17
2023-03-15T13:29:17.847Z,1.25
2023-03-15T13:31:46.569Z,1.30
2023-03-15T13:34:24.719Z,0.90
2023-03-15T13:36:59.052Z,0.85
2023-03-15T13:39:32.175Z,1.13
2023-03-15T13:42:00.710Z,1.15
2023-03-15T13:44:30.718Z,1.00
2023-03-15T13:46:58.909Z,0.73
2023-03-15T13:49:32.490Z,0.82
2023-03-15T13:52:01.851Z,0.98
2023-03-15T13:54:33.849Z,0.95
2023-03-15T13:57:07.469Z,0.80
2023-03-15T13:59:38.675Z,0.60
2023-03-15T14:02:06.980Z,0.85
2023-03-15T14:04:38.324Z,0.70
2023-03-15T14:07:28.575Z,0.70
2023-03-15T14:10:17.065Z,0.70
2023-03-15T14:12:45.751Z,0.63
2023-03-15T14:15:20.181Z,0.60
2023-03-15T14:18:09.200Z,0.80
2023-03-15T14:20:45.386Z,0.90
2023-03-15T14:23:17.064Z,0.88
2023-03-15T14:25:50.701Z,0.60
2023-03-15T14:28:18.335Z,0.70
2023-03-15T14:30:56.057Z,1.33
2023-03-15T14:33:41.815Z,0.70
2023-03-15T14:36:29.946Z,0.63
2023-03-15T14:38:58.723Z,0.70
2023-03-15T14:41:31.377Z,0.63
2023-03-15T14:43:58.826Z,0.60
2023-03-15T14:46:25.775Z,0.50
2023-03-15T14:48:53.094Z,0.65
2023-03-15T14:51:21.932Z,0.60
2023-03-15T14:53:53.376Z,0.73
2023-03-15T14:56:20.730Z,0.70
2023-03-15T14:58:47.799Z,0.60
2023-03-15T15:01:19.197Z,0.70
2023-03-15T15:03:51.810Z,0.80
2023-03-15T15:06:19.103Z,0.70
2023-03-15T15:08:47.671Z,0.60
2023-03-15T15:11:15.566Z,0.80
2023-03-15T15:13:42.850Z,0.60
2023-03-15T15:16:10.055Z,0.70
2023-03-15T15:18:37.990Z,0.77
2023-03-15T15:21:13.987Z,0.82
2023-03-15T15:23:57.383Z,0.70
2023-03-15T15:26:28.550Z,0.70
2023-03-15T15:28:56.518Z,0.60
2023-03-15T15:31:24.984Z,0.80
2023-03-15T15:33:56.125Z,0.63
2023-03-15T15:36:25.084Z,0.80
2023-03-15T15:38:52.478Z,0.63
2023-03-15T15:41:25.093Z,0.70
2023-03-15T15:43:52.207Z,0.60
2023-03-15T15:46:19.364Z,0.80
2023-03-15T15:48:46.401Z,0.60
2023-03-15T15:51:42.245Z,0.70
2023-03-15T15:54:36.178Z,0.60
2023-03-15T15:57:03.876Z,0.90
2023-03-15T15:59:31.243Z,0.70
2023-03-15T16:02:01.711Z,0.70
2023-03-15T16:04:29.710Z,0.80
2023-03-15T16:07:02.809Z,0.57
2023-03-15T16:09:31.608Z,0.88
2023-03-15T16:11:58.736Z,0.80
2023-03-15T16:14:25.844Z,1.00
2023-03-15T16:16:52.732Z,0.98
2023-03-15T16:19:19.669Z,1.45
2023-03-15T16:21:49.813Z,1.30
2023-03-15T16:24:25.421Z,1.05
2023-03-15T16:27:01.156Z,0.88
2023-03-15T16:29:37.962Z,1.30
2023-03-15T16:32:16.813Z,1.27
2023-03-15T16:34:46.048Z,1.08
2023-03-15T16:37:15.798Z,1.00
2023-03-15T16:42:16.237Z,1.15
2023-03-15T16:44:43.806Z,1.50
2023-03-15T16:47:10.992Z,1.20
2023-03-15T16:49:38.242Z,1.00
2023-03-15T16:52:07.685Z,1.25
2023-03-15T16:54:41.305Z,1.50
2023-03-15T16:57:21.991Z,1.40
2023-03-15T16:59:49.832Z,1.33
2023-03-15T17:02:25.381Z,1.02
2023-03-15T17:04:55.050Z,1.27
2023-03-15T17:07:28.962Z,1.45
2023-03-15T17:09:56.245Z,1.30
2023-03-15T17:12:26.418Z,1.70
2023-03-15T17:14:56.177Z,1.40
2023-03-15T17:17:28.089Z,1.10
2023-03-15T17:19:55.314Z,1.42
2023-03-15T17:22:25.982Z,1.58
2023-03-15T17:24:58.030Z,1.80
2023-03-15T17:27:42.265Z,2.17
2023-03-15T17:30:25.126Z,1.83
2023-03-15T17:32:52.289Z,2.30
2023-03-15T17:35:20.477Z,1.98
2023-03-15T17:37:57.055Z,2.17
2023-03-15T17:40:32.687Z,2.03
2023-03-15T17:43:01.808Z,2.10
2023-03-15T17:45:32.836Z,2.17
2023-03-15T17:48:00.618Z,1.90
2023-03-15T17:50:30.582Z,1.67
2023-03-15T17:53:00.551Z,1.80
2023-03-15T17:55:34.879Z,1.63
2023-03-15T17:58:12.887Z,2.10
2023-03-15T18:00:40.212Z,2.30
2023-03-15T18:03:07.124Z,2.40
2023-03-15T18:05:33.966Z,3.05
2023-03-15T18:08:03.891Z,2.58
2023-03-15T18:10:36.609Z,2.70
2023-03-15T18:13:04.377Z,2.40
2023-03-15T18:15:31.540Z,2.95
2023-03-15T18:17:58.510Z,2.33
2023-03-15T18:20:25.960Z,1.92
2023-03-15T18:22:52.960Z,2.10
2023-03-15T18:25:23.676Z,2.08
2023-03-15T18:27:51.858Z,2.00
2023-03-15T18:30:21.770Z,1.90
2023-03-15T18:32:54.964Z,2.00
2023-03-15T18:35:31.659Z,2.25
2023-03-15T18:37:58.912Z,2.30
2023-03-15T18:40:29.228Z,2.00
2023-03-15T18:42:58.057Z,2.15
2023-03-15T18:45:29.912Z,2.05
2023-03-15T18:47:57.153Z,2.22
2023-03-15T18:50:24.034Z,2.45
2023-03-15T18:52:51.580Z,2.50
2023-03-15T18:55:22.095Z,1.80
2023-03-15T18:57:50.185Z,2.72
2023-03-15T19:00:26.035Z,2.40
2023-03-15T19:02:55.774Z,2.22
2023-03-15T19:07:49.727Z,1.75
2023-03-15T19:10:21.327Z,1.77
2023-03-15T19:12:49.220Z,1.92
2023-03-15T19:15:17.617Z,2.13
2023-03-15T19:17:46.434Z,2.20
2023-03-15T19:20:16.492Z,2.30
2023-03-15T19:22:45.108Z,1.90
2023-03-15T19:25:13.918Z,2.35
2023-03-15T19:27:42.203Z,2.20
2023-03-15T19:30:11.890Z,2.05
2023-03-15T19:35:08.190Z,2.03
2023-03-15T19:37:35.795Z,2.72
2023-03-15T19:40:03.802Z,2.20
2023-03-15T19:42:31.338Z,2.00
2023-03-15T19:44:58.190Z,2.28
2023-03-15T19:47:25.144Z,3.25
2023-03-15T19:49:51.969Z,3.55
2023-03-15T19:52:19.014Z,3.85
2023-03-15T19:54:47.468Z,3.53
2023-03-15T19:57:14.576Z,3.75
2023-03-15T19:59:41.696Z,3.60
2023-03-15T20:02:12.255Z,3.83
2023-03-15T20:04:39.507Z,3.65
2023-03-15T20:07:06.786Z,4.03
2023-03-15T20:09:38.861Z,4.80
2023-03-15T20:12:14.864Z,4.25
2023-03-15T20:14:41.895Z,4.38
2023-03-15T20:17:08.844Z,4.72
2023-03-15T20:19:36.213Z,5.50
2023-03-15T20:22:03.658Z,5.40
2023-03-15T20:24:30.738Z,5.63
2023-03-15T20:26:57.784Z,5.18
2023-03-15T20:29:24.656Z,5.32
2023-03-15T20:31:53.416Z,5.57
2023-03-15T20:34:20.631Z,6.30
2023-03-15T20:36:47.952Z,5.55
2023-03-15T20:39:15.274Z,5.53
2023-03-15T20:41:42.068Z,6.35
2023-03-15T20:44:09.940Z,7.00
2023-03-15T20:46:37.245Z,6.50
2023-03-15T20:49:07.229Z,5.70
2023-03-15T20:51:34.313Z,5.55
2023-03-15T20:54:01.189Z,4.90
2023-03-15T20:56:28.194Z,4.95
2023-03-15T20:58:55.292Z,4.90
2023-03-15T21:01:22.168Z,4.88
2023-03-15T21:03:49.181Z,5.65
2023-03-15T21:06:19.232Z,5.30
2023-03-15T21:08:46.077Z,5.68
2023-03-15T21:11:13.030Z,5.50
2023-03-15T21:13:40.044Z,4.70
2023-03-15T21:16:07.254Z,5.22
2023-03-15T21:18:36.067Z,6.00
2023-03-15T21:21:06.069Z,5.23
2023-03-15T21:26:09.539Z,6.53
2023-03-15T21:28:37.560Z,6.43
2023-03-15T21:31:05.693Z,6.28
2023-03-15T21:33:33.315Z,7.70
2023-03-15T21:36:01.121Z,7.85
2023-03-15T21:38:31.260Z,6.97
2023-03-15T21:41:01.486Z,6.53
2023-03-15T21:43:31.864Z,6.85
2023-03-15T21:46:02.358Z,7.55
2023-03-15T21:48:29.468Z,7.43
2023-03-15T21:50:56.772Z,7.47
2023-03-15T21:53:25.963Z,8.45
2023-03-15T21:55:56.623Z,8.15
2023-03-15T21:58:24.773Z,7.80
2023-03-15T22:01:06.448Z,7.82
2023-03-15T22:03:34.779Z,8.30
2023-03-15T22:06:01.949Z,11.00
2023-03-15T22:08:29.258Z,10.32
2023-03-15T22:10:58.593Z,9.93
2023-03-15T22:13:26.380Z,10.30
2023-03-15T22:15:53.768Z,10.02
2023-03-15T22:18:21.033Z,11.00
2023-03-15T22:20:51.851Z,10.38
2023-03-15T22:23:19.063Z,10.90
2023-03-15T22:25:46.204Z,9.88
2023-03-15T22:28:13.360Z,8.27
2023-03-15T22:30:40.880Z,6.93
2023-03-15T22:33:08.549Z,7.45
2023-03-15T22:35:35.509Z,7.70
2023-03-15T22:38:09.948Z,6.88
2023-03-15T22:40:39.512Z,6.70
2023-03-15T22:43:08.123Z,6.13
2023-03-15T22:45:35.196Z,5.82
2023-03-15T22:48:02.059Z,6.45
2023-03-15T22:50:29.057Z,5.65
2023-03-15T22:52:55.916Z,5.35
2023-03-15T22:55:23.112Z,5.57
2023-03-15T22:57:50.197Z,6.95
2023-03-15T23:00:21.583Z,8.32
2023-03-15T23:02:48.594Z,8.02
2023-03-15T23:05:15.617Z,7.60
2023-03-15T23:07:42.690Z,7.15
2023-03-15T23:10:11.304Z,6.93
2023-03-15T23:12:38.346Z,6.68
2023-03-15T23:15:05.800Z,5.65
2023-03-15T23:17:32.849Z,6.47
2023-03-15T23:19:59.877Z,6.32
2023-03-15T23:22:26.936Z,6.35
2023-03-15T23:24:57.979Z,6.35
2023-03-15T23:27:26.106Z,5.88
2023-03-15T23:29:55.071Z,5.13
2023-03-15T23:32:25.043Z,5.57
2023-03-15T23:34:53.653Z,5.50
2023-03-15T23:37:21.267Z,6.10
2023-03-15T23:39:48.265Z,6.03
2023-03-15T23:42:15.239Z,6.80
2023-03-15T23:44:42.200Z,5.97
2023-03-15T23:47:09.219Z,5.68
2023-03-15T23:49:37.177Z,5.70
2023-03-15T23:52:28.906Z,6.25
2023-03-15T23:54:55.805Z,6.78
2023-03-15T23:57:22.747Z,6.65
2023-03-15T23:59:49.706Z,6.18
